IBE564 LEIB-LFMN
Flight info
| Callsign | IBE564 |
|---|---|
| Flight time | 1h 13m |
| Altitude | 34000 |
| Route | KABRE DCT ELTAN DCT MHN DCT MEROS DCT LAPIT DCT CHELY DCT LUMAS DCT SOFFY DCT MRM DCT ABLAK |
| Aircraft | MD88/M-SDFGIRWY/C |
Departure
| Time | 2026-05-05 10:08 |
|---|---|
| Airport | Ibiza Airport (LEIB) |
Arrival
| Time | 2026-05-05 11:21 |
|---|---|
| Airport | Nice-Côte d'Azur Airport (LFMN) |
| Time | Latitude | Longitude | Altitude | Speed | Heading |
|---|---|---|---|---|---|
| 2026-05-05 09:43 | 38.87519 | 1.37156 | 37 ft | 0 kts | 21° |
| 2026-05-05 10:02 | 38.87531 | 1.37158 | 37 ft | 3 kts | 354° |
| 2026-05-05 10:02 | 38.87557 | 1.37151 | 37 ft | 3 kts | 351° |
| 2026-05-05 10:02 | 38.87587 | 1.37167 | 38 ft | 6 kts | 49° |
| 2026-05-05 10:03 | 38.87614 | 1.37228 | 38 ft | 9 kts | 62° |
| 2026-05-05 10:03 | 38.87653 | 1.37320 | 38 ft | 13 kts | 62° |
| 2026-05-05 10:03 | 38.87696 | 1.37437 | 38 ft | 14 kts | 82° |
| 2026-05-05 10:03 | 38.87644 | 1.37512 | 37 ft | 11 kts | 152° |
| 2026-05-05 10:04 | 38.87584 | 1.37569 | 36 ft | 8 kts | 98° |
| 2026-05-05 10:04 | 38.87604 | 1.37641 | 36 ft | 9 kts | 62° |
| 2026-05-05 10:04 | 38.87639 | 1.37722 | 35 ft | 12 kts | 61° |
| 2026-05-05 10:04 | 38.87683 | 1.37830 | 34 ft | 15 kts | 61° |
| 2026-05-05 10:05 | 38.87739 | 1.37965 | 33 ft | 18 kts | 62° |
| 2026-05-05 10:05 | 38.87803 | 1.38119 | 31 ft | 19 kts | 62° |
| 2026-05-05 10:05 | 38.87862 | 1.38262 | 29 ft | 17 kts | 62° |
| 2026-05-05 10:05 | 38.87917 | 1.38394 | 28 ft | 15 kts | 62° |
| 2026-05-05 10:06 | 38.87966 | 1.38513 | 26 ft | 14 kts | 61° |
| 2026-05-05 10:06 | 38.87996 | 1.38621 | 26 ft | 11 kts | 114° |
| 2026-05-05 10:06 | 38.87937 | 1.38674 | 25 ft | 9 kts | 153° |
| 2026-05-05 10:06 | 38.87885 | 1.38702 | 25 ft | 6 kts | 178° |
| 2026-05-05 10:07 | 38.87851 | 1.38678 | 25 ft | 5 kts | 230° |
| 2026-05-05 10:07 | 38.87831 | 1.38639 | 25 ft | 4 kts | 240° |
| 2026-05-05 10:07 | 38.87818 | 1.38608 | 26 ft | 3 kts | 241° |
| 2026-05-05 10:07 | 38.87809 | 1.38588 | 26 ft | 2 kts | 241° |
| 2026-05-05 10:08 | 38.87782 | 1.38523 | 26 ft | 25 kts | 242° |
| 2026-05-05 10:08 | 38.87590 | 1.38059 | 32 ft | 90 kts | 242° |
| 2026-05-05 10:08 | 38.87196 | 1.37102 | 34 ft | 156 kts | 241° |
| 2026-05-05 10:08 | 38.86650 | 1.35813 | 766 ft | 156 kts | 242° |
| 2026-05-05 10:09 | 38.86131 | 1.34635 | 1454 ft | 151 kts | 241° |
| 2026-05-05 10:09 | 38.85600 | 1.33477 | 1971 ft | 156 kts | 241° |
| 2026-05-05 10:09 | 38.84869 | 1.32376 | 2340 ft | 171 kts | 226° |
| 2026-05-05 10:09 | 38.84014 | 1.31272 | 2741 ft | 185 kts | 229° |
| 2026-05-05 10:10 | 38.83013 | 1.29908 | 2658 ft | 233 kts | 229° |
| 2026-05-05 10:10 | 38.81821 | 1.28280 | 2940 ft | 264 kts | 224° |
| 2026-05-05 10:10 | 38.80257 | 1.27072 | 3918 ft | 266 kts | 200° |
| 2026-05-05 10:10 | 38.78447 | 1.26739 | 4865 ft | 270 kts | 176° |
| 2026-05-05 10:11 | 38.76611 | 1.27251 | 5850 ft | 270 kts | 168° |
| 2026-05-05 10:11 | 38.74802 | 1.27801 | 6767 ft | 272 kts | 169° |
| 2026-05-05 10:11 | 38.72942 | 1.28340 | 7616 ft | 276 kts | 170° |
| 2026-05-05 10:11 | 38.71053 | 1.28865 | 8513 ft | 278 kts | 171° |
| 2026-05-05 10:12 | 38.69175 | 1.29367 | 9353 ft | 282 kts | 172° |
| 2026-05-05 10:12 | 38.67245 | 1.29866 | 10204 ft | 284 kts | 172° |
| 2026-05-05 10:12 | 38.65299 | 1.30357 | 11041 ft | 287 kts | 173° |
| 2026-05-05 10:12 | 38.63365 | 1.30835 | 11836 ft | 289 kts | 173° |
| 2026-05-05 10:13 | 38.61360 | 1.31320 | 12619 ft | 293 kts | 171° |
| 2026-05-05 10:13 | 38.59508 | 1.32452 | 13303 ft | 310 kts | 147° |
| 2026-05-05 10:13 | 38.57996 | 1.34543 | 13614 ft | 339 kts | 126° |
| 2026-05-05 10:13 | 38.57089 | 1.37456 | 13707 ft | 374 kts | 103° |
| 2026-05-05 10:14 | 38.56846 | 1.40852 | 14224 ft | 386 kts | 98° |
| 2026-05-05 10:14 | 38.56582 | 1.44252 | 14944 ft | 390 kts | 99° |
| 2026-05-05 10:14 | 38.56265 | 1.47698 | 15631 ft | 395 kts | 100° |
| 2026-05-05 10:14 | 38.55911 | 1.51177 | 16288 ft | 400 kts | 100° |
| 2026-05-05 10:15 | 38.55523 | 1.54727 | 16965 ft | 404 kts | 101° |
| 2026-05-05 10:15 | 38.55229 | 1.58288 | 17564 ft | 413 kts | 90° |
| 2026-05-05 10:15 | 38.55701 | 1.61898 | 18222 ft | 419 kts | 73° |
| 2026-05-05 10:15 | 38.56936 | 1.65299 | 18767 ft | 425 kts | 56° |
| 2026-05-05 10:16 | 38.58513 | 1.68492 | 19343 ft | 430 kts | 58° |
| 2026-05-05 10:16 | 38.60065 | 1.71755 | 19878 ft | 435 kts | 59° |
| 2026-05-05 10:16 | 38.61621 | 1.75119 | 20482 ft | 438 kts | 59° |
| 2026-05-05 10:16 | 38.63156 | 1.78502 | 20963 ft | 444 kts | 60° |
| 2026-05-05 10:17 | 38.64687 | 1.81922 | 21549 ft | 447 kts | 60° |
| 2026-05-05 10:17 | 38.66231 | 1.85397 | 22011 ft | 452 kts | 60° |
| 2026-05-05 10:17 | 38.67754 | 1.88845 | 22543 ft | 448 kts | 60° |
| 2026-05-05 10:17 | 38.69290 | 1.92334 | 22719 ft | 455 kts | 60° |
| 2026-05-05 10:18 | 38.70866 | 1.95921 | 23081 ft | 463 kts | 60° |
| 2026-05-05 10:18 | 38.72422 | 1.99469 | 23660 ft | 464 kts | 60° |
| 2026-05-05 10:18 | 38.74023 | 2.03119 | 24110 ft | 470 kts | 60° |
| 2026-05-05 10:18 | 38.75606 | 2.06729 | 24620 ft | 472 kts | 60° |
| 2026-05-05 10:19 | 38.77219 | 2.10403 | 25062 ft | 477 kts | 61° |
| 2026-05-05 10:19 | 38.78851 | 2.14122 | 25562 ft | 480 kts | 60° |
| 2026-05-05 10:19 | 38.80492 | 2.17861 | 26061 ft | 483 kts | 60° |
| 2026-05-05 10:19 | 38.82143 | 2.21618 | 26483 ft | 488 kts | 60° |
| 2026-05-05 10:20 | 38.83807 | 2.25408 | 26899 ft | 492 kts | 60° |
| 2026-05-05 10:20 | 38.85480 | 2.29210 | 27409 ft | 494 kts | 60° |
| 2026-05-05 10:20 | 38.87196 | 2.33107 | 27760 ft | 500 kts | 60° |
| 2026-05-05 10:20 | 38.88900 | 2.36975 | 28267 ft | 501 kts | 60° |
| 2026-05-05 10:21 | 38.90593 | 2.40821 | 28713 ft | 496 kts | 60° |
| 2026-05-05 10:21 | 38.92292 | 2.44673 | 29232 ft | 493 kts | 60° |
| 2026-05-05 10:21 | 38.93994 | 2.48526 | 29498 ft | 500 kts | 60° |
| 2026-05-05 10:21 | 38.95713 | 2.52414 | 29581 ft | 511 kts | 60° |
| 2026-05-05 10:22 | 38.97482 | 2.56419 | 30076 ft | 511 kts | 60° |
| 2026-05-05 10:22 | 38.99188 | 2.60354 | 30720 ft | 507 kts | 60° |
| 2026-05-05 10:22 | 39.02629 | 2.68349 | 31560 ft | 509 kts | 61° |
| 2026-05-05 10:23 | 39.04319 | 2.72287 | 32254 ft | 504 kts | 62° |
| 2026-05-05 10:23 | 39.06030 | 2.76268 | 32610 ft | 506 kts | 61° |
| 2026-05-05 10:23 | 39.07731 | 2.80228 | 33195 ft | 504 kts | 61° |
| 2026-05-05 10:23 | 39.09410 | 2.84137 | 33705 ft | 502 kts | 61° |
| 2026-05-05 10:24 | 39.11098 | 2.88056 | 33954 ft | 506 kts | 61° |
| 2026-05-05 10:24 | 39.12820 | 2.92056 | 33935 ft | 507 kts | 61° |
| 2026-05-05 10:24 | 39.16110 | 2.99998 | 33937 ft | 503 kts | 64° |
| 2026-05-05 10:25 | 39.19226 | 3.07982 | 33940 ft | 501 kts | 64° |
| 2026-05-05 10:25 | 39.22361 | 3.16051 | 33943 ft | 502 kts | 64° |
| 2026-05-05 10:26 | 39.25487 | 3.24097 | 33943 ft | 504 kts | 64° |
| 2026-05-05 10:26 | 39.28636 | 3.32190 | 33944 ft | 504 kts | 64° |
| 2026-05-05 10:27 | 39.31752 | 3.40190 | 33945 ft | 503 kts | 64° |
| 2026-05-05 10:27 | 39.34901 | 3.48262 | 33947 ft | 502 kts | 63° |
| 2026-05-05 10:28 | 39.38046 | 3.56307 | 33946 ft | 502 kts | 63° |
| 2026-05-05 10:28 | 39.41195 | 3.64353 | 33951 ft | 503 kts | 63° |
| 2026-05-05 10:29 | 39.44352 | 3.72402 | 33940 ft | 502 kts | 63° |
| 2026-05-05 10:29 | 39.47501 | 3.80414 | 33942 ft | 503 kts | 63° |
| 2026-05-05 10:30 | 39.50668 | 3.88465 | 33938 ft | 503 kts | 63° |
| 2026-05-05 10:30 | 39.53798 | 3.96530 | 33938 ft | 503 kts | 64° |
| 2026-05-05 10:31 | 39.56905 | 4.04645 | 33937 ft | 502 kts | 64° |
| 2026-05-05 10:31 | 39.60050 | 4.12680 | 33935 ft | 501 kts | 57° |
| 2026-05-05 10:32 | 39.62294 | 4.16155 | 33961 ft | 495 kts | 38° |
| 2026-05-05 10:32 | 39.65058 | 4.18643 | 33973 ft | 487 kts | 21° |
| 2026-05-05 10:32 | 39.68229 | 4.20086 | 33977 ft | 474 kts | 3° |
| 2026-05-05 10:32 | 39.71455 | 4.20369 | 33985 ft | 461 kts | 351° |
| 2026-05-05 10:33 | 39.77911 | 4.20703 | 33958 ft | 468 kts | 357° |
| 2026-05-05 10:33 | 39.84403 | 4.21561 | 33954 ft | 469 kts | 359° |
| 2026-05-05 10:34 | 39.90841 | 4.22798 | 33961 ft | 472 kts | 2° |
| 2026-05-05 10:34 | 39.97324 | 4.24270 | 33958 ft | 473 kts | 2° |
| 2026-05-05 10:35 | 40.03807 | 4.25775 | 33950 ft | 472 kts | 2° |
| 2026-05-05 10:35 | 40.10283 | 4.27292 | 33950 ft | 472 kts | 2° |
| 2026-05-05 10:36 | 40.16755 | 4.28813 | 33944 ft | 473 kts | 2° |
| 2026-05-05 10:36 | 40.23227 | 4.30339 | 33944 ft | 474 kts | 2° |
| 2026-05-05 10:37 | 40.29703 | 4.31865 | 33947 ft | 473 kts | 2° |
| 2026-05-05 10:37 | 40.36194 | 4.33394 | 33943 ft | 474 kts | 2° |
| 2026-05-05 10:38 | 40.42696 | 4.34927 | 33944 ft | 476 kts | 2° |
| 2026-05-05 10:38 | 40.49247 | 4.36472 | 33954 ft | 477 kts | 2° |
| 2026-05-05 10:39 | 40.55756 | 4.37971 | 33956 ft | 475 kts | 2° |
| 2026-05-05 10:39 | 40.62243 | 4.39510 | 33955 ft | 476 kts | 2° |
| 2026-05-05 10:40 | 40.68778 | 4.41083 | 33958 ft | 477 kts | 2° |
| 2026-05-05 10:40 | 40.75305 | 4.42668 | 33963 ft | 476 kts | 2° |
| 2026-05-05 10:41 | 40.81829 | 4.44257 | 33962 ft | 477 kts | 2° |
| 2026-05-05 10:41 | 40.88345 | 4.45842 | 33956 ft | 479 kts | 2° |
| 2026-05-05 10:42 | 40.98179 | 4.48194 | 33958 ft | 481 kts | 2° |
| 2026-05-05 10:43 | 41.04745 | 4.49808 | 33957 ft | 480 kts | 2° |
| 2026-05-05 10:43 | 41.11304 | 4.51378 | 33954 ft | 479 kts | 2° |
| 2026-05-05 10:44 | 41.17829 | 4.52936 | 33955 ft | 479 kts | 2° |
| 2026-05-05 10:44 | 41.24366 | 4.54531 | 33956 ft | 480 kts | 3° |
| 2026-05-05 10:45 | 41.30922 | 4.56146 | 33954 ft | 480 kts | 2° |
| 2026-05-05 10:45 | 41.37491 | 4.57771 | 33949 ft | 479 kts | 3° |
| 2026-05-05 10:46 | 41.44023 | 4.59388 | 33958 ft | 478 kts | 3° |
| 2026-05-05 10:46 | 41.50571 | 4.61010 | 33955 ft | 479 kts | 3° |
| 2026-05-05 10:47 | 41.57137 | 4.62638 | 33955 ft | 479 kts | 3° |
| 2026-05-05 10:47 | 41.63699 | 4.64264 | 33958 ft | 479 kts | 3° |
| 2026-05-05 10:48 | 41.70255 | 4.65887 | 33941 ft | 480 kts | 4° |
| 2026-05-05 10:48 | 41.76779 | 4.67927 | 33951 ft | 485 kts | 11° |
| 2026-05-05 10:49 | 41.83218 | 4.70505 | 33947 ft | 485 kts | 11° |
| 2026-05-05 10:49 | 41.89708 | 4.73089 | 33951 ft | 487 kts | 10° |
| 2026-05-05 10:50 | 41.96160 | 4.75655 | 33946 ft | 486 kts | 10° |
| 2026-05-05 10:50 | 42.02658 | 4.78235 | 33946 ft | 486 kts | 10° |
| 2026-05-05 10:51 | 42.09138 | 4.80806 | 33953 ft | 487 kts | 11° |
| 2026-05-05 10:51 | 42.15648 | 4.83390 | 33941 ft | 486 kts | 10° |
| 2026-05-05 10:52 | 42.22110 | 4.85953 | 33936 ft | 486 kts | 11° |
| 2026-05-05 10:52 | 42.28569 | 4.88517 | 33943 ft | 487 kts | 11° |
| 2026-05-05 10:53 | 42.35066 | 4.91095 | 33944 ft | 486 kts | 11° |
| 2026-05-05 10:53 | 42.41556 | 4.93672 | 33946 ft | 486 kts | 11° |
| 2026-05-05 10:54 | 42.48062 | 4.96252 | 33941 ft | 486 kts | 11° |
| 2026-05-05 10:54 | 42.54532 | 4.98818 | 33946 ft | 487 kts | 11° |
| 2026-05-05 10:55 | 42.60979 | 5.01405 | 33947 ft | 485 kts | 11° |
| 2026-05-05 10:55 | 42.67430 | 5.04014 | 33945 ft | 486 kts | 11° |
| 2026-05-05 10:56 | 42.73906 | 5.06635 | 33948 ft | 486 kts | 11° |
| 2026-05-05 10:56 | 42.80359 | 5.09249 | 33947 ft | 485 kts | 11° |
| 2026-05-05 10:57 | 42.86839 | 5.11878 | 33954 ft | 486 kts | 11° |
| 2026-05-05 10:57 | 42.93292 | 5.14490 | 33953 ft | 485 kts | 11° |
| 2026-05-05 10:58 | 42.99784 | 5.17118 | 33941 ft | 487 kts | 12° |
| 2026-05-05 10:58 | 43.06243 | 5.19721 | 33622 ft | 489 kts | 11° |
| 2026-05-05 10:58 | 43.09522 | 5.21056 | 33001 ft | 488 kts | 11° |
| 2026-05-05 10:59 | 43.12751 | 5.22371 | 32400 ft | 485 kts | 11° |
| 2026-05-05 10:59 | 43.15982 | 5.23694 | 31800 ft | 483 kts | 11° |
| 2026-05-05 10:59 | 43.19165 | 5.25001 | 31206 ft | 480 kts | 11° |
| 2026-05-05 10:59 | 43.22354 | 5.26309 | 30614 ft | 477 kts | 11° |
| 2026-05-05 11:00 | 43.25538 | 5.27618 | 30024 ft | 475 kts | 10° |
| 2026-05-05 11:00 | 43.28677 | 5.28904 | 29449 ft | 472 kts | 10° |
| 2026-05-05 11:00 | 43.31794 | 5.30184 | 28883 ft | 468 kts | 11° |
| 2026-05-05 11:00 | 43.34926 | 5.31474 | 28302 ft | 465 kts | 11° |
| 2026-05-05 11:01 | 43.37942 | 5.33010 | 27840 ft | 464 kts | 19° |
| 2026-05-05 11:01 | 43.40807 | 5.34974 | 27266 ft | 465 kts | 26° |
| 2026-05-05 11:01 | 43.43516 | 5.37467 | 26646 ft | 465 kts | 31° |
| 2026-05-05 11:01 | 43.46167 | 5.39967 | 26029 ft | 463 kts | 31° |
| 2026-05-05 11:02 | 43.48785 | 5.42521 | 25389 ft | 463 kts | 39° |
| 2026-05-05 11:02 | 43.50949 | 5.45709 | 24936 ft | 458 kts | 53° |
| 2026-05-05 11:02 | 43.52548 | 5.49477 | 24340 ft | 453 kts | 69° |
| 2026-05-05 11:02 | 43.53493 | 5.53590 | 23799 ft | 447 kts | 75° |
| 2026-05-05 11:03 | 43.54438 | 5.57641 | 23213 ft | 444 kts | 73° |
| 2026-05-05 11:03 | 43.55423 | 5.61621 | 22601 ft | 438 kts | 72° |
| 2026-05-05 11:03 | 43.56419 | 5.65547 | 22078 ft | 425 kts | 76° |
| 2026-05-05 11:03 | 43.57110 | 5.69404 | 21675 ft | 408 kts | 83° |
| 2026-05-05 11:04 | 43.57439 | 5.73231 | 21095 ft | 398 kts | 91° |
| 2026-05-05 11:04 | 43.57603 | 5.76971 | 20532 ft | 394 kts | 90° |
| 2026-05-05 11:04 | 43.57795 | 5.80735 | 20000 ft | 391 kts | 90° |
| 2026-05-05 11:04 | 43.57998 | 5.84465 | 19465 ft | 389 kts | 89° |
| 2026-05-05 11:05 | 43.58212 | 5.88150 | 18943 ft | 386 kts | 89° |
| 2026-05-05 11:05 | 43.58433 | 5.91819 | 18421 ft | 382 kts | 89° |
| 2026-05-05 11:05 | 43.58654 | 5.95416 | 17916 ft | 378 kts | 89° |
| 2026-05-05 11:05 | 43.58877 | 5.98966 | 17429 ft | 375 kts | 89° |
| 2026-05-05 11:06 | 43.59105 | 6.02543 | 16924 ft | 371 kts | 88° |
| 2026-05-05 11:06 | 43.59331 | 6.06044 | 16453 ft | 368 kts | 88° |
| 2026-05-05 11:06 | 43.59452 | 6.09560 | 15975 ft | 361 kts | 98° |
| 2026-05-05 11:06 | 43.59058 | 6.12893 | 15580 ft | 354 kts | 110° |
| 2026-05-05 11:07 | 43.58191 | 6.16036 | 15121 ft | 349 kts | 117° |
| 2026-05-05 11:07 | 43.57284 | 6.19099 | 14634 ft | 346 kts | 116° |
| 2026-05-05 11:07 | 43.56411 | 6.22099 | 14160 ft | 334 kts | 116° |
| 2026-05-05 11:07 | 43.55559 | 6.25062 | 13695 ft | 323 kts | 116° |
| 2026-05-05 11:08 | 43.54762 | 6.27857 | 13230 ft | 315 kts | 115° |
| 2026-05-05 11:08 | 43.53978 | 6.30625 | 12767 ft | 307 kts | 115° |
| 2026-05-05 11:08 | 43.53214 | 6.33344 | 12370 ft | 298 kts | 115° |
| 2026-05-05 11:08 | 43.52486 | 6.35947 | 11993 ft | 291 kts | 115° |
| 2026-05-05 11:09 | 43.51759 | 6.38547 | 11630 ft | 288 kts | 115° |
| 2026-05-05 11:09 | 43.51040 | 6.41133 | 11304 ft | 290 kts | 114° |
| 2026-05-05 11:09 | 43.50247 | 6.43646 | 11051 ft | 287 kts | 125° |
| 2026-05-05 11:09 | 43.49022 | 6.45798 | 10731 ft | 285 kts | 140° |
| 2026-05-05 11:10 | 43.47609 | 6.47736 | 10375 ft | 286 kts | 138° |
| 2026-05-05 11:10 | 43.46211 | 6.49679 | 10013 ft | 285 kts | 138° |
| 2026-05-05 11:10 | 43.44836 | 6.51606 | 9649 ft | 282 kts | 137° |
| 2026-05-05 11:10 | 43.43459 | 6.53553 | 9304 ft | 281 kts | 137° |
| 2026-05-05 11:11 | 43.42105 | 6.55471 | 8950 ft | 281 kts | 137° |
| 2026-05-05 11:11 | 43.40755 | 6.57391 | 8589 ft | 279 kts | 137° |
| 2026-05-05 11:11 | 43.39418 | 6.59299 | 8217 ft | 277 kts | 137° |
| 2026-05-05 11:11 | 43.38099 | 6.61182 | 7932 ft | 272 kts | 134° |
| 2026-05-05 11:12 | 43.37213 | 6.63486 | 7670 ft | 277 kts | 104° |
| 2026-05-05 11:12 | 43.37210 | 6.66119 | 7416 ft | 282 kts | 76° |
| 2026-05-05 11:12 | 43.37931 | 6.68620 | 7160 ft | 283 kts | 69° |
| 2026-05-05 11:12 | 43.38688 | 6.71111 | 6886 ft | 283 kts | 68° |
| 2026-05-05 11:13 | 43.39433 | 6.73605 | 6597 ft | 282 kts | 69° |
| 2026-05-05 11:13 | 43.40167 | 6.76098 | 6318 ft | 280 kts | 69° |
| 2026-05-05 11:13 | 43.40879 | 6.78548 | 6020 ft | 277 kts | 69° |
| 2026-05-05 11:13 | 43.41593 | 6.81024 | 5732 ft | 275 kts | 70° |
| 2026-05-05 11:14 | 43.42280 | 6.83431 | 5448 ft | 272 kts | 70° |
| 2026-05-05 11:14 | 43.42965 | 6.85842 | 5172 ft | 269 kts | 70° |
| 2026-05-05 11:14 | 43.43636 | 6.88215 | 4927 ft | 266 kts | 69° |
| 2026-05-05 11:14 | 43.44311 | 6.90608 | 4652 ft | 264 kts | 69° |
| 2026-05-05 11:15 | 43.44970 | 6.92951 | 4368 ft | 263 kts | 69° |
| 2026-05-05 11:15 | 43.45614 | 6.95266 | 4092 ft | 261 kts | 67° |
| 2026-05-05 11:15 | 43.46577 | 6.97343 | 3982 ft | 251 kts | 49° |
| 2026-05-05 11:15 | 43.47813 | 6.98920 | 3974 ft | 238 kts | 42° |
| 2026-05-05 11:16 | 43.49032 | 7.00404 | 3960 ft | 225 kts | 41° |
| 2026-05-05 11:16 | 43.50122 | 7.01876 | 3822 ft | 221 kts | 45° |
| 2026-05-05 11:16 | 43.51218 | 7.03379 | 3582 ft | 221 kts | 46° |
| 2026-05-05 11:16 | 43.52287 | 7.04826 | 3444 ft | 208 kts | 44° |
| 2026-05-05 11:17 | 43.53356 | 7.06131 | 3130 ft | 206 kts | 43° |
| 2026-05-05 11:17 | 43.54416 | 7.07458 | 2824 ft | 201 kts | 43° |
| 2026-05-05 11:17 | 43.55382 | 7.08658 | 2579 ft | 175 kts | 43° |
| 2026-05-05 11:17 | 43.56231 | 7.09718 | 2261 ft | 157 kts | 43° |
| 2026-05-05 11:18 | 43.57007 | 7.10681 | 1999 ft | 143 kts | 43° |
| 2026-05-05 11:18 | 43.57708 | 7.11528 | 1827 ft | 129 kts | 43° |
| 2026-05-05 11:18 | 43.58388 | 7.12362 | 1645 ft | 129 kts | 43° |
| 2026-05-05 11:18 | 43.59051 | 7.13174 | 1607 ft | 132 kts | 40° |
| 2026-05-05 11:19 | 43.59800 | 7.13962 | 1536 ft | 137 kts | 37° |
| 2026-05-05 11:19 | 43.60553 | 7.14730 | 1319 ft | 137 kts | 37° |
| 2026-05-05 11:19 | 43.61273 | 7.15555 | 1058 ft | 131 kts | 45° |
| 2026-05-05 11:19 | 43.61905 | 7.16433 | 757 ft | 127 kts | 46° |
| 2026-05-05 11:20 | 43.62506 | 7.17284 | 562 ft | 121 kts | 48° |
| 2026-05-05 11:20 | 43.63084 | 7.18094 | 436 ft | 118 kts | 45° |
| 2026-05-05 11:20 | 43.63698 | 7.18897 | 326 ft | 121 kts | 45° |
| 2026-05-05 11:20 | 43.64304 | 7.19736 | 161 ft | 125 kts | 45° |
| 2026-05-05 11:21 | 43.64916 | 7.20570 | 30 ft | 118 kts | 45° |
| 2026-05-05 11:21 | 43.65432 | 7.21291 | 20 ft | 85 kts | 45° |
| 2026-05-05 11:21 | 43.65754 | 7.21732 | 20 ft | 57 kts | 45° |
| 2026-05-05 11:21 | 43.65960 | 7.22002 | 20 ft | 23 kts | 37° |
| 2026-05-05 11:22 | 43.66096 | 7.22098 | 20 ft | 20 kts | 19° |
| 2026-05-05 11:22 | 43.66210 | 7.22143 | 20 ft | 14 kts | 14° |
| 2026-05-05 11:22 | 43.66282 | 7.22170 | 20 ft | 8 kts | 15° |
| 2026-05-05 11:22 | 43.66341 | 7.22192 | 20 ft | 9 kts | 13° |